WEATHER/FLIGHT PLANNING

Hattiesburg Radar

 

 

 

 

Weather Links

Flight Planning Links

 

METAR

2015/04/26 03:53 KHBG 260353Z AUTO 00000KT 10SM CLR 18/17 A2975 RMK AO2 SLP070 T01780167

TAF

2015/04/25 18:48 KHBG 251744Z 2518/2618 VRB04KT 6SM -RA VCTS SCT008 BKN015CB OVC050 FM252100 23007KT P6SM VCSH SCT025 BKN040 FM260000 19006KT P6SM SCT040 FM260800 VRB03KT 1SM BR BKN005 FM261500 28006KT P6SM SCT015